Terminal Aerodrome Forecast
Issued by NWS Greer, SC

Home | Current Version | Previous Version | Text Only | Print | Product List | Glossary On
Versions: 1 2 3 4 5 6 7 8 9 10 11 12 13 14 15 16 17 18 19 20 21 22 23 24 25 26 27 28 29 30 31 32 33 34 35 36 37 38 39 40
828
FTUS42 KGSP 282101 AAA
TAFAVL
TAF AMD
KAVL 282101Z 2821/2918 19012G20KT P6SM SCT035
     FM290100 26003KT P6SM SKC
     FM290700 32003KT 1 1/2SM BR SCT005
     FM291400 31003KT P6SM SCT070=

USA.gov is the U.S. government's official web portal to all federal, state and local government web resources and services.